PWSweather.com
Personal Weather Stations
Station Observations
BALTRELAY
Relay, Baltimore, MD 21227

RelayBaltimore, MD 21227

Lat: 39.24588, Lon: -76.719772

Elevation: 221

Station Type: Davis Vantage Pro2 (6153)

http://www.relayweather.com

Latest ConditionsUpdated 5:15:00 AM GMT Tuesday, Aug 4, 2015
Currently Today's Max Today's Min Today's Average
Temperature 76.6°F24.8°C 84.1°F28.9°C 76.5°F24.7°C 79.5°F26.4°C
Dew Point 67.7°F19.8°C 68.0°F20.0°C 66.8°F19.3°C 67.5°F19.7°C
Winds 2.3 mph SSW3.7 kmh SSW 3.5 mph SSW5.6 kmh SSW - 2.2 mph 3.5 kmh
Wind Gusts 4.6 mph7.4 kmh 5.8 mph9.3 kmh - -
Humidity 74% 74% 57% 67%
Pressure 29.78 in1008.5 mb 29.78 in1008.5 mb 29.76 in1007.8 mb -
Hour Temp Dew Point Humidity Winds Wind Gusts Pressure Precip Precip Rate Daily Precip Total
05:15 AM 76.6°F24.8°C 67.7°F19.8°C 74% 2.3 mph SSW3.7 kmh SSW 4.6 mph7.4 kmh 29.78 in1008.5 mb - 0.00 in0.0 mm 0.00 in0.0 mm
05:10 AM 76.5°F24.7°C 67.6°F19.8°C 74% 2.3 mph SW3.7 kmh SW 5.8 mph9.3 kmh 29.77 in1008.1 mb - 0.00 in0.0 mm 0.00 in0.0 mm
05:00 AM 76.6°F24.8°C 67.7°F19.8°C 74% 3.5 mph SSW5.6 kmh SSW 4.6 mph7.4 kmh 29.77 in1008.1 mb - 0.00 in0.0 mm 0.00 in0.0 mm
04:50 AM 76.8°F24.9°C 67.5°F19.7°C 73% 1.2 mph SW1.9 kmh SW 4.6 mph7.4 kmh 29.78 in1008.5 mb - 0.00 in0.0 mm 0.00 in0.0 mm
04:45 AM 76.8°F24.9°C 67.4°F19.7°C 73% 2.3 mph SSW3.7 kmh SSW 4.6 mph7.4 kmh 29.77 in1008.1 mb - 0.00 in0.0 mm 0.00 in0.0 mm
04:40 AM 76.6°F24.8°C 67.7°F19.8°C 74% 2.3 mph SW3.7 kmh SW 4.6 mph7.4 kmh 29.78 in1008.5 mb - 0.00 in0.0 mm 0.00 in0.0 mm
04:30 AM 76.8°F24.9°C 67.9°F19.9°C 74% 2.3 mph SSW3.7 kmh SSW 4.6 mph7.4 kmh 29.78 in1008.5 mb - 0.00 in0.0 mm 0.00 in0.0 mm
04:20 AM 76.9°F24.9°C 67.6°F19.8°C 73% 2.3 mph SSW3.7 kmh SSW 4.6 mph7.4 kmh 29.78 in1008.5 mb - 0.00 in0.0 mm 0.00 in0.0 mm
04:15 AM 77.3°F25.2°C 67.9°F19.9°C 73% 2.3 mph SSW3.7 kmh SSW 4.6 mph7.4 kmh 29.78 in1008.5 mb - 0.00 in0.0 mm 0.00 in0.0 mm
04:10 AM 77.3°F25.2°C 67.9°F19.9°C 73% 3.5 mph SSW5.6 kmh SSW 4.6 mph7.4 kmh 29.78 in1008.5 mb - 0.00 in0.0 mm 0.00 in0.0 mm
04:00 AM 77.4°F25.2°C 67.6°F19.8°C 72% 2.3 mph SSW3.7 kmh SSW 3.5 mph5.6 kmh 29.78 in1008.5 mb - 0.00 in0.0 mm 0.00 in0.0 mm
03:50 AM 77.5°F25.3°C 67.8°F19.9°C 72% 3.5 mph SSW5.6 kmh SSW 4.6 mph7.4 kmh 29.78 in1008.5 mb - 0.00 in0.0 mm 0.00 in0.0 mm
03:45 AM 77.6°F25.3°C 67.8°F19.9°C 72% 2.3 mph SSW3.7 kmh SSW 3.5 mph5.6 kmh 29.78 in1008.5 mb - 0.00 in0.0 mm 0.00 in0.0 mm
03:40 AM 77.9°F25.5°C 67.7°F19.8°C 71% 2.3 mph SW3.7 kmh SW 4.6 mph7.4 kmh 29.77 in1008.1 mb - 0.00 in0.0 mm 0.00 in0.0 mm
03:30 AM 77.9°F25.5°C 67.7°F19.8°C 71% 2.3 mph SW3.7 kmh SW 4.6 mph7.4 kmh 29.77 in1008.1 mb - 0.00 in0.0 mm 0.00 in0.0 mm
03:20 AM 78.1°F25.6°C 68.0°F20.0°C 71% 3.5 mph SW5.6 kmh SW 5.8 mph9.3 kmh 29.77 in1008.1 mb - 0.00 in0.0 mm 0.00 in0.0 mm
03:15 AM 78.2°F25.7°C 68.0°F20.0°C 71% 3.5 mph SSW5.6 kmh SSW 5.8 mph9.3 kmh 29.77 in1008.1 mb - 0.00 in0.0 mm 0.00 in0.0 mm
03:10 AM 78.2°F25.7°C 68.0°F20.0°C 71% 3.5 mph SSW5.6 kmh SSW 4.6 mph7.4 kmh 29.77 in1008.1 mb - 0.00 in0.0 mm 0.00 in0.0 mm
03:00 AM 78.7°F25.9°C 68.0°F20.0°C 70% 3.5 mph SSW5.6 kmh SSW 4.6 mph7.4 kmh 29.77 in1008.1 mb - 0.00 in0.0 mm 0.00 in0.0 mm
02:50 AM 78.4°F25.8°C 67.8°F19.9°C 70% 3.5 mph S5.6 kmh S 4.6 mph7.4 kmh 29.77 in1008.1 mb - 0.00 in0.0 mm 0.00 in0.0 mm
02:45 AM 78.1°F25.6°C 67.5°F19.7°C 70% 1.2 mph SSW1.9 kmh SSW 2.3 mph3.7 kmh 29.77 in1008.1 mb - 0.00 in0.0 mm 0.00 in0.0 mm
02:40 AM 78.2°F25.7°C 67.1°F19.5°C 69% 1.2 mph SSW1.9 kmh SSW 3.5 mph5.6 kmh 29.77 in1008.1 mb - 0.00 in0.0 mm 0.00 in0.0 mm
02:30 AM 79.0°F26.1°C 67.5°F19.7°C 68% Calm Calm -- 29.78 in1008.5 mb - 0.00 in0.0 mm 0.00 in0.0 mm
02:20 AM 79.6°F26.4°C 67.6°F19.8°C 67% 1.2 mph SSW1.9 kmh SSW 3.5 mph5.6 kmh 29.78 in1008.5 mb - 0.00 in0.0 mm 0.00 in0.0 mm
02:15 AM 79.8°F26.6°C 67.4°F19.7°C 66% 3.5 mph SSW5.6 kmh SSW 4.6 mph7.4 kmh 29.78 in1008.5 mb - 0.00 in0.0 mm 0.00 in0.0 mm
02:10 AM 80.1°F26.7°C 67.3°F19.6°C 65% 1.2 mph SSW1.9 kmh SSW 4.6 mph7.4 kmh 29.78 in1008.5 mb - 0.00 in0.0 mm 0.00 in0.0 mm
02:00 AM 80.0°F26.7°C 67.2°F19.6°C 65% 2.3 mph SSW3.7 kmh SSW 3.5 mph5.6 kmh 29.78 in1008.5 mb - 0.00 in0.0 mm 0.00 in0.0 mm
01:50 AM 80.4°F26.9°C 67.1°F19.5°C 64% Calm Calm 2.3 mph3.7 kmh 29.78 in1008.5 mb - 0.00 in0.0 mm 0.00 in0.0 mm
01:45 AM 80.7°F27.1°C 66.9°F19.4°C 63% 2.3 mph S3.7 kmh S 3.5 mph5.6 kmh 29.78 in1008.5 mb - 0.00 in0.0 mm 0.00 in0.0 mm
01:40 AM 80.9°F27.2°C 67.1°F19.5°C 63% 2.3 mph S3.7 kmh S 3.5 mph5.6 kmh 29.78 in1008.5 mb - 0.00 in0.0 mm 0.00 in0.0 mm
01:30 AM 81.2°F27.3°C 66.9°F19.4°C 62% 1.2 mph S1.9 kmh S -- 29.78 in1008.5 mb - 0.00 in0.0 mm 0.00 in0.0 mm
01:20 AM 81.6°F27.6°C 67.3°F19.6°C 62% 2.3 mph SSW3.7 kmh SSW 4.6 mph7.4 kmh 29.77 in1008.1 mb - 0.00 in0.0 mm 0.00 in0.0 mm
01:15 AM 81.7°F27.6°C 66.9°F19.4°C 61% 2.3 mph SSW3.7 kmh SSW 4.6 mph7.4 kmh 29.77 in1008.1 mb - 0.00 in0.0 mm 0.00 in0.0 mm
01:10 AM 82.0°F27.8°C 67.2°F19.6°C 61% 2.3 mph S3.7 kmh S 4.6 mph7.4 kmh 29.77 in1008.1 mb - 0.00 in0.0 mm 0.00 in0.0 mm
01:00 AM 82.1°F27.8°C 66.8°F19.3°C 60% 1.2 mph SSW1.9 kmh SSW 4.6 mph7.4 kmh 29.77 in1008.1 mb - 0.00 in0.0 mm 0.00 in0.0 mm
12:50 AM 82.5°F28.1°C 67.2°F19.6°C 60% 1.2 mph S1.9 kmh S 4.6 mph7.4 kmh 29.77 in1008.1 mb - 0.00 in0.0 mm 0.00 in0.0 mm
12:45 AM 82.7°F28.2°C 66.9°F19.4°C 59% 2.3 mph S3.7 kmh S 3.5 mph5.6 kmh 29.77 in1008.1 mb - 0.00 in0.0 mm 0.00 in0.0 mm
12:40 AM 82.9°F28.3°C 67.1°F19.5°C 59% 2.3 mph S3.7 kmh S 3.5 mph5.6 kmh 29.77 in1008.1 mb - 0.00 in0.0 mm 0.00 in0.0 mm
12:30 AM 83.2°F28.4°C 67.3°F19.6°C 59% 2.3 mph S3.7 kmh S 4.6 mph7.4 kmh 29.77 in1008.1 mb - 0.00 in0.0 mm 0.00 in0.0 mm
12:20 AM 83.7°F28.7°C 67.3°F19.6°C 58% 1.2 mph S1.9 kmh S 2.3 mph3.7 kmh 29.77 in1008.1 mb - 0.00 in0.0 mm 0.00 in0.0 mm
12:15 AM 83.7°F28.7°C 67.3°F19.6°C 58% Calm Calm -- 29.77 in1008.1 mb - 0.00 in0.0 mm 0.00 in0.0 mm
12:10 AM 83.9°F28.8°C 67.0°F19.4°C 57% 1.2 mph S1.9 kmh S 2.3 mph3.7 kmh 29.77 in1008.1 mb - 0.00 in0.0 mm 0.00 in0.0 mm
12:00 AM 84.1°F28.9°C 67.2°F19.6°C 57% 3.5 mph SSW5.6 kmh SSW 5.8 mph9.3 kmh 29.76 in1007.8 mb - 0.00 in0.0 mm 0.00 in0.0 mm